Time;durP1;ratioP1;P1;durP2;ratioP2;P2;SDS_P1;SDS_P2;PMS_P1;PMS_P2;Temp;Humidity;BMP_temperature;BMP_pressure;BME280_temperature;BME280_humidity;BME280_pressure;Samples;Min_cycle;Max_cycle;Signal;HPM_P1;HPM_P2
2022/04/08 00:01:00;;;;;;;7.53;0.60;;;5.90;99.90;;;;;;4988859;28;20545;-67
2022/04/08 00:03:26;;;;;;;6.50;0.70;;;5.90;99.90;;;;;;5014649;28;20045;-67
2022/04/08 00:05:52;;;;;;;1.07;0.30;;;5.90;99.90;;;;;;5004332;28;20129;-68
2022/04/08 00:08:19;;;;;;;3.10;0.47;;;5.90;99.90;;;;;;5015368;28;20177;-66
2022/04/08 00:10:44;;;;;;;3.83;0.68;;;5.70;99.90;;;;;;5015882;28;20049;-67
2022/04/08 00:13:10;;;;;;;1.73;0.40;;;5.60;99.90;;;;;;5019804;28;20034;-68
2022/04/08 00:15:38;;;;;;;4.80;0.80;;;5.50;99.90;;;;;;5018655;28;20046;-73
2022/04/08 00:18:04;;;;;;;2.10;0.47;;;5.40;99.90;;;;;;5005594;28;20190;-73
2022/04/08 00:20:32;;;;;;;2.65;0.32;;;5.40;99.90;;;;;;5005234;28;20037;-67
2022/04/08 00:22:58;;;;;;;6.47;1.08;;;5.40;99.90;;;;;;5017618;28;20052;-68
2022/04/08 00:25:24;;;;;;;5.82;0.60;;;5.40;99.90;;;;;;5021538;28;20148;-67
2022/04/08 00:27:49;;;;;;;5.80;0.60;;;5.30;99.90;;;;;;4998841;28;20506;-66
2022/04/08 00:30:15;;;;;;;3.57;0.50;;;5.30;99.90;;;;;;5016718;28;20238;-67
2022/04/08 00:32:41;;;;;;;6.57;0.77;;;5.30;99.90;;;;;;5019091;28;20095;-68
2022/04/08 00:35:07;;;;;;;2.87;0.80;;;5.20;99.90;;;;;;5000627;28;20760;-68
2022/04/08 00:37:32;;;;;;;4.03;0.60;;;5.20;99.90;;;;;;5021516;28;20522;-67
2022/04/08 00:39:58;;;;;;;13.50;1.93;;;5.20;99.90;;;;;;5010924;28;20470;-67
2022/04/08 00:42:23;;;;;;;7.30;1.77;;;5.20;99.90;;;;;;4990450;28;20414;-67
2022/04/08 00:44:49;;;;;;;5.27;1.30;;;5.20;99.90;;;;;;5005230;28;20481;-67
2022/04/08 00:47:15;;;;;;;9.10;0.87;;;5.10;99.90;;;;;;4999842;28;20121;-67
2022/04/08 00:49:41;;;;;;;5.10;0.90;;;5.10;99.90;;;;;;5022337;28;20041;-68
2022/04/08 00:52:07;;;;;;;10.60;0.88;;;5.00;99.90;;;;;;5017999;28;20487;-68
2022/04/08 00:54:33;;;;;;;6.40;0.80;;;4.90;99.90;;;;;;5027992;28;20395;-67
2022/04/08 00:56:59;;;;;;;5.00;0.90;;;4.90;99.90;;;;;;5000799;28;20076;-67
2022/04/08 00:59:25;;;;;;;5.32;1.25;;;4.90;99.90;;;;;;5023238;28;20319;-67
2022/04/08 01:01:54;;;;;;;5.68;1.23;;;4.90;99.90;;;;;;5004148;28;20088;-67
2022/04/08 01:04:23;;;;;;;6.50;1.15;;;4.90;99.90;;;;;;5003783;28;20320;-67
2022/04/08 01:06:49;;;;;;;7.43;1.30;;;4.90;99.90;;;;;;5005174;28;20052;-67
2022/04/08 01:09:15;;;;;;;5.22;1.17;;;4.80;99.90;;;;;;4987136;28;20037;-67
2022/04/08 01:11:42;;;;;;;7.28;0.50;;;4.80;99.90;;;;;;5017982;28;20124;-68
2022/04/08 01:14:09;;;;;;;;;;;4.80;99.90;;;;;;5024322;28;20370;-68
2022/04/08 01:16:34;;;;;;;3.90;0.90;;;4.90;99.90;;;;;;5023923;28;19925;-66
2022/04/08 01:19:00;;;;;;;6.90;0.97;;;4.80;99.90;;;;;;5024718;28;20517;-67
2022/04/08 01:21:25;;;;;;;5.33;0.70;;;4.90;99.90;;;;;;5023373;28;20084;-68
2022/04/08 01:23:55;;;;;;;11.30;1.83;;;4.90;99.90;;;;;;5005136;28;20059;-67
2022/04/08 01:26:20;;;;;;;9.55;0.80;;;4.80;99.90;;;;;;5002781;28;20217;-68
2022/04/08 01:28:48;;;;;;;9.80;1.70;;;4.80;99.90;;;;;;5025459;28;20123;-67
2022/04/08 01:31:15;;;;;;;8.02;1.20;;;4.90;99.90;;;;;;5042272;23;20359;-80
2022/04/08 01:33:41;;;;;;;5.32;1.00;;;4.80;99.90;;;;;;4980432;28;20111;-81
2022/04/08 01:36:07;;;;;;;7.43;1.77;;;4.90;99.90;;;;;;5001705;28;20048;-80
2022/04/08 01:38:33;;;;;;;7.30;1.97;;;4.90;99.90;;;;;;4977735;28;20033;-79
2022/04/08 01:40:58;;;;;;;6.88;1.70;;;4.90;99.90;;;;;;4992687;28;20097;-79
2022/04/08 01:43:24;;;;;;;10.63;1.67;;;4.90;99.90;;;;;;4983894;28;20060;-82
2022/04/08 01:45:50;;;;;;;9.87;1.80;;;5.00;99.90;;;;;;4984199;28;20045;-80
2022/04/08 01:48:15;;;;;;;10.90;1.80;;;4.90;99.90;;;;;;4983514;28;20593;-79
2022/04/08 01:50:41;;;;;;;9.13;1.90;;;4.90;99.90;;;;;;4985120;28;20737;-81
2022/04/08 01:53:07;;;;;;;15.27;1.13;;;4.90;99.90;;;;;;4986310;28;20148;-80
2022/04/08 01:55:32;;;;;;;20.00;1.77;;;4.90;99.90;;;;;;4984932;28;20039;-81
2022/04/08 01:57:58;;;;;;;7.70;1.60;;;4.90;99.90;;;;;;4985181;28;20545;-80
2022/04/08 02:00:24;;;;;;;10.87;1.30;;;4.90;99.90;;;;;;4984015;28;20080;-80
2022/04/08 02:02:49;;;;;;;14.17;1.57;;;4.80;99.90;;;;;;4986197;28;20715;-80
2022/04/08 02:05:15;;;;;;;7.30;1.20;;;4.80;99.90;;;;;;5001509;28;20474;-80
2022/04/08 02:07:44;;;;;;;6.97;1.83;;;4.90;99.90;;;;;;4985397;28;20071;-80
2022/04/08 02:10:10;;;;;;;8.60;1.50;;;4.80;99.90;;;;;;4976383;28;20036;-80
2022/04/08 02:12:35;;;;;;;9.15;2.63;;;4.80;99.90;;;;;;4999410;28;20069;-81
2022/04/08 02:15:01;;;;;;;5.40;1.20;;;4.80;99.90;;;;;;4985788;28;20357;-80
2022/04/08 02:17:28;;;;;;;7.67;0.80;;;4.90;99.90;;;;;;4986017;28;20033;-81
2022/04/08 02:19:55;;;;;;;7.38;1.25;;;4.80;99.90;;;;;;5001088;28;20063;-80
2022/04/08 02:22:21;;;;;;;;;;;4.80;99.90;;;;;;5001208;28;20037;-79
2022/04/08 02:24:49;;;;;;;6.10;1.30;;;4.60;99.90;;;;;;4999028;28;19917;-79
2022/04/08 02:27:14;;;;;;;8.85;1.50;;;4.60;99.90;;;;;;4983307;28;20040;-80
2022/04/08 02:29:42;;;;;;;6.87;1.17;;;4.60;99.90;;;;;;4999566;28;20353;-80
2022/04/08 02:32:10;;;;;;;6.15;1.35;;;4.60;99.90;;;;;;4982054;28;20080;-80
2022/04/08 02:34:37;;;;;;;7.18;1.60;;;4.60;99.90;;;;;;4982637;28;20045;-79
2022/04/08 02:37:06;;;;;;;5.93;1.48;;;4.60;99.90;;;;;;4998441;28;20496;-79
2022/04/08 02:39:32;;;;;;;8.18;1.38;;;4.60;99.90;;;;;;4998479;28;20045;-80
2022/04/08 02:41:59;;;;;;;10.68;1.73;;;4.70;99.90;;;;;;4980284;28;20640;-80
2022/04/08 02:44:25;;;;;;;11.30;1.10;;;4.70;99.90;;;;;;4995435;28;20119;-78
2022/04/08 02:46:50;;;;;;;6.83;1.63;;;4.70;99.90;;;;;;4983538;28;20128;-80
2022/04/08 02:49:16;;;;;;;9.57;1.73;;;4.80;99.90;;;;;;4993220;28;20524;-80
2022/04/08 02:51:42;;;;;;;9.60;1.70;;;4.90;99.90;;;;;;4983346;28;20036;-79
2022/04/08 02:54:07;;;;;;;21.90;2.57;;;4.90;99.90;;;;;;4983446;28;20717;-81
2022/04/08 02:56:33;;;;;;;9.83;1.40;;;4.90;99.90;;;;;;4982438;28;20037;-80
2022/04/08 02:59:00;;;;;;;12.57;2.27;;;4.90;99.90;;;;;;5000077;28;20092;-82
2022/04/08 03:01:27;;;;;;;11.85;1.70;;;5.00;99.90;;;;;;4994018;28;20597;-81
2022/04/08 03:03:52;;;;;;;8.75;2.35;;;5.00;99.90;;;;;;4997315;28;20496;-80
2022/04/08 03:06:18;;;;;;;10.47;1.90;;;5.00;99.90;;;;;;4997728;28;20100;-81
2022/04/08 03:08:44;;;;;;;10.35;1.33;;;5.00;99.90;;;;;;4985317;28;20538;-80
2022/04/08 03:11:10;;;;;;;15.55;2.10;;;5.00;99.90;;;;;;4981581;28;20033;-80
2022/04/08 03:13:36;;;;;;;13.13;1.77;;;5.00;99.90;;;;;;4993471;28;20040;-80
2022/04/08 03:16:02;;;;;;;12.10;2.33;;;5.00;99.90;;;;;;4985729;28;20458;-79
2022/04/08 03:18:28;;;;;;;13.93;2.05;;;5.00;99.90;;;;;;4998489;28;20581;-81
2022/04/08 03:20:53;;;;;;;14.23;1.50;;;5.00;99.90;;;;;;4995746;28;20124;-80
2022/04/08 03:23:19;;;;;;;18.13;3.67;;;5.00;99.90;;;;;;4982013;28;20080;-80
2022/04/08 03:25:45;;;;;;;15.07;1.43;;;5.10;99.90;;;;;;4993968;28;20454;-80
2022/04/08 03:28:10;;;;;;;14.87;1.90;;;5.10;99.90;;;;;;4999218;28;20075;-82
2022/04/08 03:30:36;;;;;;;14.23;1.40;;;5.10;99.90;;;;;;4997520;28;20060;-81
2022/04/08 03:33:02;;;;;;;4.90;0.90;;;5.10;99.90;;;;;;4986698;28;20129;-80
2022/04/08 03:35:27;;;;;;;3.10;0.70;;;5.00;99.90;;;;;;4993148;28;20228;-79
2022/04/08 03:37:53;;;;;;;1.87;0.40;;;4.50;99.90;;;;;;4996379;28;20048;-79
2022/04/08 03:40:19;;;;;;;2.70;0.37;;;4.20;99.90;;;;;;4999787;28;20136;-80
2022/04/08 03:42:45;;;;;;;1.27;0.50;;;4.00;99.90;;;;;;5000056;28;20057;-79
2022/04/08 03:45:11;;;;;;;2.97;0.50;;;3.80;99.90;;;;;;4983205;28;20372;-81
2022/04/08 03:47:36;;;;;;;0.57;0.30;;;3.60;99.90;;;;;;4982243;28;20389;-81
2022/04/08 03:50:05;;;;;;;2.47;0.60;;;3.50;99.90;;;;;;5001437;28;20040;-81
2022/04/08 03:52:32;;;;;;;0.63;0.35;;;3.50;99.90;;;;;;4986016;28;20081;-79
2022/04/08 03:55:02;;;;;;;3.78;0.55;;;3.50;99.90;;;;;;5002637;28;20119;-80
2022/04/08 03:57:28;;;;;;;2.72;0.63;;;3.50;99.90;;;;;;4986350;28;20121;-82
2022/04/08 03:59:54;;;;;;;3.60;1.25;;;3.50;99.90;;;;;;4998431;28;20091;-82
2022/04/08 04:02:20;;;;;;;3.65;0.50;;;3.50;99.90;;;;;;4978431;28;20037;-83
2022/04/08 04:04:46;;;;;;;2.40;0.60;;;3.60;99.90;;;;;;4983665;28;20079;-81
2022/04/08 04:07:11;;;;;;;3.40;0.85;;;3.50;99.90;;;;;;4999672;28;20423;-82
2022/04/08 04:09:37;;;;;;;3.33;1.00;;;3.50;99.90;;;;;;4987058;28;20100;-83
2022/04/08 04:12:03;;;;;;;2.07;0.90;;;3.50;99.90;;;;;;4979325;28;20120;-81
2022/04/08 04:14:31;;;;;;;2.10;0.90;;;3.50;99.90;;;;;;4996646;28;20502;-84
2022/04/08 04:16:57;;;;;;;3.58;1.55;;;3.50;99.90;;;;;;5004633;28;20033;-81
2022/04/08 04:19:22;;;;;;;6.27;1.03;;;3.50;99.90;;;;;;5002848;28;20126;-82
2022/04/08 04:21:50;;;;;;;10.20;1.30;;;3.50;99.90;;;;;;4994405;28;20423;-81
2022/04/08 04:24:16;;;;;;;5.85;1.05;;;3.50;99.90;;;;;;4992569;28;20509;-84
2022/04/08 04:26:42;;;;;;;3.57;0.57;;;3.50;99.90;;;;;;4981218;28;20041;-81
2022/04/08 04:29:07;;;;;;;2.10;0.63;;;3.50;99.90;;;;;;5001495;28;20087;-83
2022/04/08 04:31:33;;;;;;;6.80;1.20;;;3.60;99.90;;;;;;4998510;28;20836;-83
2022/04/08 04:33:58;;;;;;;2.97;0.90;;;3.70;99.90;;;;;;5002568;28;20095;-81
2022/04/08 04:36:24;;;;;;;5.97;1.10;;;3.80;99.90;;;;;;5003931;28;20452;-82
2022/04/08 04:38:50;;;;;;;3.27;1.20;;;3.80;99.90;;;;;;4989969;28;20048;-83
2022/04/08 04:41:17;;;;;;;4.17;1.10;;;3.90;99.90;;;;;;4987145;28;20081;-83
2022/04/08 04:43:43;;;;;;;5.68;1.33;;;3.90;99.90;;;;;;4985177;28;20264;-82
2022/04/08 04:46:09;;;;;;;12.00;1.47;;;4.00;99.90;;;;;;4983877;28;20049;-82
2022/04/08 04:48:34;;;;;;;3.80;1.30;;;4.00;99.90;;;;;;4987577;28;20125;-82
2022/04/08 04:51:00;;;;;;;9.13;1.57;;;4.10;99.90;;;;;;4987257;28;20076;-83
2022/04/08 04:53:26;;;;;;;6.07;2.00;;;4.00;99.90;;;;;;4986885;28;20565;-82
2022/04/08 04:55:51;;;;;;;5.25;1.15;;;4.00;99.90;;;;;;4996410;28;20095;-83
2022/04/08 04:58:17;;;;;;;4.20;1.53;;;4.00;99.90;;;;;;5004069;28;20564;-82
2022/04/08 05:00:42;;;;;;;6.37;1.70;;;4.00;99.90;;;;;;4986886;28;20041;-84
2022/04/08 05:03:08;;;;;;;4.97;1.57;;;4.10;99.90;;;;;;4999836;28;20049;-83
2022/04/08 05:05:35;;;;;;;6.45;1.40;;;4.00;99.90;;;;;;5006871;28;20455;-82
2022/04/08 05:08:04;;;;;;;4.50;1.65;;;4.10;99.90;;;;;;5001715;28;20056;-82
2022/04/08 05:10:34;;;;;;;5.32;2.22;;;4.10;99.90;;;;;;4993504;28;20041;-81
2022/04/08 05:12:59;;;;;;;5.30;1.75;;;4.20;99.90;;;;;;5002602;28;20096;-82
2022/04/08 05:15:26;;;;;;;7.07;1.73;;;4.20;99.90;;;;;;4987333;28;20037;-84
2022/04/08 05:17:51;;;;;;;4.75;1.30;;;4.20;99.90;;;;;;4985077;28;20308;-85
2022/04/08 05:20:17;;;;;;;7.90;0.70;;;4.20;99.90;;;;;;4986048;28;20593;-82
2022/04/08 05:22:42;;;;;;;3.80;1.17;;;4.20;99.90;;;;;;4986865;28;20051;-83
2022/04/08 05:25:08;;;;;;;7.83;1.23;;;4.20;99.90;;;;;;4986961;28;20447;-82
2022/04/08 05:27:38;;;;;;;7.40;1.88;;;4.20;99.90;;;;;;5008969;28;20044;-84
2022/04/08 05:30:06;;;;;;;3.58;1.30;;;4.10;99.90;;;;;;5002514;28;20045;-85
2022/04/08 05:32:31;;;;;;;3.40;1.38;;;4.10;99.90;;;;;;4984327;28;20397;-82
2022/04/08 05:34:57;;;;;;;2.40;1.20;;;4.10;99.90;;;;;;5003777;28;20048;-84
2022/04/08 05:37:23;;;;;;;4.77;1.30;;;4.10;99.90;;;;;;5016208;28;20029;-83
2022/04/08 05:39:48;;;;;;;4.67;1.73;;;4.10;99.90;;;;;;5003979;28;20668;-82
2022/04/08 05:42:13;;;;;;;6.13;1.40;;;4.10;99.90;;;;;;4999194;28;20048;-85
2022/04/08 05:44:39;;;;;;;12.37;1.43;;;4.20;99.90;;;;;;4987587;28;20069;-84
2022/04/08 05:47:05;;;;;;;5.70;1.13;;;4.30;99.90;;;;;;4986741;28;20041;-82
2022/04/08 05:49:30;;;;;;;3.43;1.17;;;4.30;99.90;;;;;;4995847;28;20523;-83
2022/04/08 05:51:56;;;;;;;4.43;1.70;;;4.30;99.90;;;;;;5002094;28;20827;-83
2022/04/08 05:54:22;;;;;;;7.37;1.20;;;4.30;99.90;;;;;;4986753;28;20605;-83
2022/04/08 05:56:47;;;;;;;6.70;1.20;;;4.30;99.90;;;;;;4982918;28;20124;-83
2022/04/08 05:59:13;;;;;;;5.90;2.13;;;4.30;99.90;;;;;;4985174;28;20038;-84
2022/04/08 06:01:38;;;;;;;5.13;0.83;;;4.40;99.90;;;;;;5000572;28;20045;-84
2022/04/08 06:04:04;;;;;;;3.57;1.40;;;4.40;99.90;;;;;;4992871;28;20099;-83
2022/04/08 06:06:30;;;;;;;8.03;1.47;;;4.50;99.90;;;;;;5003322;28;20037;-84
2022/04/08 06:08:55;;;;;;;8.73;1.30;;;4.50;99.90;;;;;;4993006;28;20898;-81
2022/04/08 06:11:21;;;;;;;10.70;1.70;;;4.60;99.90;;;;;;4992757;28;20117;-83
2022/04/08 06:13:47;;;;;;;3.77;1.93;;;4.70;99.90;;;;;;5002236;28;20044;-84
2022/04/08 06:16:12;;;;;;;4.77;1.10;;;4.80;99.90;;;;;;4978285;28;20045;-81
2022/04/08 06:18:38;;;;;;;4.83;1.27;;;4.90;99.90;;;;;;4986171;28;20151;-85
2022/04/08 06:21:04;;;;;;;7.70;1.30;;;5.00;99.90;;;;;;4994645;28;20175;-82
2022/04/08 06:23:30;;;;;;;5.75;1.42;;;5.00;99.90;;;;;;5014504;28;20046;-84
2022/04/08 06:25:56;;;;;;;5.68;1.45;;;5.10;99.90;;;;;;5001599;28;20080;-83
2022/04/08 06:28:21;;;;;;;4.90;1.20;;;5.10;99.90;;;;;;4976005;28;20159;-83
2022/04/08 06:30:47;;;;;;;6.50;1.37;;;5.00;99.90;;;;;;5003907;28;20331;-84
2022/04/08 06:33:12;;;;;;;2.20;1.30;;;5.00;99.90;;;;;;4997465;28;20069;-82
2022/04/08 06:35:38;;;;;;;5.67;1.30;;;5.00;99.90;;;;;;5000546;28;20689;-83
2022/04/08 06:38:07;;;;;;;5.47;1.35;;;5.00;99.90;;;;;;4984222;28;20036;-82
2022/04/08 06:40:35;;;;;;;8.07;1.50;;;5.10;99.90;;;;;;4976593;28;20104;-79
2022/04/08 06:43:01;;;;;;;5.72;1.05;;;5.10;99.90;;;;;;5017052;28;20033;-82
2022/04/08 06:45:27;;;;;;;4.70;1.10;;;5.20;99.90;;;;;;4997666;28;20127;-82
2022/04/08 06:47:54;;;;;;;4.17;1.00;;;5.30;99.90;;;;;;4999878;28;20128;-81
2022/04/08 06:50:19;;;;;;;5.45;1.52;;;5.40;99.90;;;;;;5001198;28;20845;-82
2022/04/08 06:52:46;;;;;;;5.73;1.17;;;5.40;99.90;;;;;;4981051;28;20162;-81
2022/04/08 06:55:12;;;;;;;;;;;5.40;99.90;;;;;;4999811;28;20037;-80
2022/04/08 06:57:38;;;;;;;3.05;1.17;;;5.30;99.90;;;;;;4999631;28;20342;-80
2022/04/08 07:00:08;;;;;;;4.80;1.00;;;5.30;99.90;;;;;;4982241;28;20038;-82
2022/04/08 07:02:35;;;;;;;6.32;1.30;;;5.20;99.90;;;;;;4998341;28;20041;-80
2022/04/08 07:05:01;;;;;;;7.18;1.60;;;5.20;99.90;;;;;;4995253;28;20041;-79
2022/04/08 07:07:34;;;;;;;7.55;1.38;;;5.20;99.90;;;;;;5001336;28;20091;-80
2022/04/08 07:09:59;;;;;;;13.68;2.50;;;5.20;99.90;;;;;;4981685;28;20439;-81
2022/04/08 07:12:25;;;;;;;8.50;2.07;;;5.30;99.90;;;;;;4996085;28;20040;-79
2022/04/08 07:14:52;;;;;;;7.65;1.45;;;5.50;99.90;;;;;;4980856;28;20041;-82
2022/04/08 07:17:24;;;;;;;13.02;3.17;;;5.60;99.90;;;;;;4994849;28;20037;-82
2022/04/08 07:19:50;;;;;;;8.23;1.70;;;5.70;99.90;;;;;;4983561;28;20157;-80
2022/04/08 07:22:15;;;;;;;5.93;1.00;;;5.70;99.90;;;;;;5008843;28;20403;-80
2022/04/08 07:24:41;;;;;;;9.60;1.40;;;5.70;99.90;;;;;;4984489;28;20410;-81
2022/04/08 07:27:07;;;;;;;8.07;1.50;;;5.70;99.90;;;;;;4984827;28;20037;-82
2022/04/08 07:29:33;;;;;;;7.25;1.30;;;5.60;99.90;;;;;;4994610;28;20125;-81
2022/04/08 07:31:59;;;;;;;10.30;2.57;;;5.60;99.90;;;;;;4981567;28;20037;-79
2022/04/08 07:34:24;;;;;;;3.13;1.00;;;5.60;99.90;;;;;;4998887;28;20302;-76
2022/04/08 07:36:50;;;;;;;7.50;1.97;;;5.50;99.90;;;;;;4983032;28;20067;-79
2022/04/08 07:39:15;;;;;;;13.70;2.97;;;5.60;99.90;;;;;;5000334;28;20049;-79
2022/04/08 07:41:41;;;;;;;3.50;1.03;;;5.60;99.90;;;;;;4977786;28;20038;-79
2022/04/08 07:44:07;;;;;;;9.87;1.90;;;5.70;99.90;;;;;;4985317;28;20041;-79
2022/04/08 07:46:32;;;;;;;2.03;0.53;;;5.80;99.90;;;;;;4985616;28;20956;-79
2022/04/08 07:48:58;;;;;;;3.83;0.90;;;5.80;99.90;;;;;;4981311;28;20042;-78
2022/04/08 07:51:24;;;;;;;5.03;0.80;;;5.90;99.90;;;;;;5001889;28;20037;-77
2022/04/08 07:53:49;;;;;;;3.13;1.08;;;6.00;99.90;;;;;;5003264;28;20041;-78
2022/04/08 07:56:15;;;;;;;5.63;0.90;;;6.10;99.90;;;;;;4989398;28;20041;-79
2022/04/08 07:58:40;;;;;;;4.97;0.83;;;6.10;99.90;;;;;;5005162;28;20119;-79
2022/04/08 08:01:06;;;;;;;6.77;1.10;;;6.20;99.90;;;;;;4988816;28;20462;-78
2022/04/08 08:03:34;;;;;;;6.07;1.20;;;6.30;99.90;;;;;;5001639;28;20561;-80
2022/04/08 08:06:01;;;;;;;8.70;1.15;;;6.40;99.90;;;;;;4987928;28;20052;-80
2022/04/08 08:08:27;;;;;;;5.72;1.65;;;6.40;99.90;;;;;;4987494;28;20042;-80
2022/04/08 08:10:54;;;;;;;3.90;0.97;;;6.50;99.90;;;;;;5003376;28;20068;-79
2022/04/08 08:13:20;;;;;;;5.15;1.10;;;6.60;99.90;;;;;;5003894;28;20065;-80
2022/04/08 08:15:46;;;;;;;8.90;0.93;;;6.70;99.90;;;;;;4988143;28;20338;-79
2022/04/08 08:18:11;;;;;;;5.17;0.87;;;6.90;99.90;;;;;;4983341;28;20041;-79
2022/04/08 08:20:37;;;;;;;2.40;1.20;;;6.90;99.90;;;;;;4987839;28;20055;-79
2022/04/08 08:23:06;;;;;;;2.72;1.00;;;7.00;99.90;;;;;;4999036;28;20052;-80
2022/04/08 08:25:32;;;;;;;6.13;1.10;;;7.20;99.90;;;;;;4986748;28;20522;-79
2022/04/08 08:28:01;;;;;;;4.95;1.10;;;7.30;99.90;;;;;;5003407;28;20067;-79
2022/04/08 08:30:29;;;;;;;7.15;1.23;;;7.40;99.90;;;;;;4987434;28;20246;-79
2022/04/08 08:32:54;;;;;;;3.80;1.40;;;7.50;99.90;;;;;;5001448;28;20056;-79
2022/04/08 08:35:21;;;;;;;4.50;1.07;;;7.60;99.90;;;;;;5000849;28;20041;-80
2022/04/08 08:37:47;;;;;;;6.35;1.50;;;7.60;99.90;;;;;;5011290;28;20071;-79
2022/04/08 08:40:14;;;;;;;3.65;0.80;;;7.60;99.90;;;;;;4987756;28;20039;-79
2022/04/08 08:42:42;;;;;;;11.05;1.42;;;7.60;99.90;;;;;;4985386;28;20037;-79
2022/04/08 08:45:10;;;;;;;3.80;1.00;;;7.70;99.90;;;;;;4999618;28;20044;-81
2022/04/08 08:47:36;;;;;;;8.82;1.30;;;7.80;99.90;;;;;;5001283;28;20387;-80
2022/04/08 08:50:04;;;;;;;6.00;1.10;;;8.00;99.90;;;;;;4986826;28;20060;-79
2022/04/08 08:52:31;;;;;;;8.63;1.60;;;8.20;99.90;;;;;;4999076;28;20490;-79
2022/04/08 08:54:57;;;;;;;4.65;1.08;;;8.20;99.90;;;;;;4986842;28;20446;-80
2022/04/08 08:57:23;;;;;;;4.63;1.20;;;8.20;99.90;;;;;;4986906;28;20045;-80
2022/04/08 09:00:01;;;;;;;3.88;1.00;;;8.20;99.90;;;;;;5007314;28;20045;-78
2022/04/08 09:02:26;;;;;;;5.13;1.70;;;8.20;99.90;;;;;;4984027;28;20041;-80
2022/04/08 09:04:52;;;;;;;5.33;1.43;;;8.20;99.90;;;;;;5002729;28;20427;-80
2022/04/08 09:07:28;;;;;;;8.33;1.43;;;8.10;99.90;;;;;;5003673;28;20315;-79
2022/04/08 09:09:56;;;;;;;8.77;1.38;;;7.90;99.90;;;;;;4986569;28;20465;-80
2022/04/08 09:12:24;;;;;;;8.52;1.15;;;7.90;99.90;;;;;;4988533;28;20038;-80
2022/04/08 09:14:51;;;;;;;3.78;1.20;;;7.70;99.90;;;;;;5018138;28;20041;-80
2022/04/08 09:17:18;;;;;;;6.15;1.05;;;7.60;99.90;;;;;;4995605;28;20495;-80
2022/04/08 09:19:49;;;;;;;3.72;0.77;;;7.60;99.90;;;;;;5004466;28;20041;-80
2022/04/08 09:22:15;;;;;;;3.35;0.90;;;7.70;99.90;;;;;;4990278;28;20135;-80
2022/04/08 09:24:41;;;;;;;4.78;0.88;;;7.90;99.90;;;;;;5000000;28;20048;-80
2022/04/08 09:27:06;;;;;;;5.40;1.60;;;8.10;99.90;;;;;;4990196;28;20435;-80
2022/04/08 09:29:34;;;;;;;4.37;1.63;;;8.30;99.90;;;;;;5002865;28;20144;-79
2022/04/08 09:31:59;;;;;;;3.10;0.75;;;8.40;99.90;;;;;;4985918;28;20041;-78
2022/04/08 09:34:25;;;;;;;4.83;1.20;;;8.30;99.90;;;;;;4986159;28;20037;-78
2022/04/08 09:36:51;;;;;;;4.85;1.20;;;8.50;99.90;;;;;;4997331;28;20041;-78
2022/04/08 09:39:18;;;;;;;4.43;0.87;;;8.60;99.90;;;;;;4987114;28;20041;-80
2022/04/08 09:41:49;;;;;;;2.63;0.85;;;8.80;99.90;;;;;;5001509;28;20045;-81
2022/04/08 09:44:22;;;;;;;8.00;1.25;;;9.00;99.90;;;;;;4983066;28;20061;-80
2022/04/08 09:46:48;;;;;;;8.10;1.10;;;9.10;99.90;;;;;;4999294;28;20041;-80
2022/04/08 09:49:13;;;;;;;2.77;0.80;;;9.10;98.80;;;;;;5001953;28;20493;-80
2022/04/08 09:51:40;;;;;;;4.70;1.20;;;9.10;93.90;;;;;;4992634;28;20539;-80
2022/04/08 09:54:08;;;;;;;;;;;9.00;95.70;;;;;;5003240;28;20060;-80
2022/04/08 09:56:35;;;;;;;6.00;1.70;;;9.20;96.80;;;;;;4997481;28;19921;-80
2022/04/08 09:59:13;;;;;;;4.63;1.02;;;9.50;99.90;;;;;;5005386;28;20509;-81
2022/04/08 10:01:43;;;;;;;6.22;1.13;;;9.70;98.30;;;;;;4998809;28;20072;-80
2022/04/08 10:04:10;;;;;;;2.83;1.33;;;9.80;92.20;;;;;;4983406;28;20083;-80
2022/04/08 10:06:36;;;;;;;3.97;0.82;;;9.70;99.90;;;;;;5019400;28;20088;-80
2022/04/08 10:09:04;;;;;;;4.25;1.10;;;9.40;97.40;;;;;;4991794;28;20045;-80
2022/04/08 10:11:45;;;;;;;4.47;1.65;;;9.20;99.90;;;;;;5008082;28;20048;-80
2022/04/08 10:14:20;;;;;;;2.97;0.70;;;9.00;99.90;;;;;;5006608;28;20041;-80
2022/04/08 10:16:51;;;;;;;2.17;0.65;;;8.70;94.40;;;;;;4984427;28;20046;-80
2022/04/08 10:19:17;;;;;;;5.90;1.10;;;8.60;96.00;;;;;;5011466;28;20076;-80
2022/04/08 10:21:43;;;;;;;3.23;0.83;;;8.60;94.00;;;;;;4984071;28;20128;-80
2022/04/08 10:24:13;;;;;;;5.73;1.20;;;8.70;96.90;;;;;;5001301;28;20141;-80
2022/04/08 10:26:58;;;;;;;5.00;2.38;;;9.00;99.40;;;;;;4987083;28;21051;-80
2022/04/08 10:29:24;;;;;;;6.53;1.13;;;9.40;95.40;;;;;;4997552;28;20515;-80
2022/04/08 10:32:05;;;;;;;0.88;0.40;;;9.60;97.10;;;;;;5000729;28;20044;-78
2022/04/08 10:34:32;;;;;;;1.98;0.65;;;9.50;96.20;;;;;;4998935;28;20040;-79
2022/04/08 10:37:14;;;;;;;1.30;0.50;;;9.20;99.30;;;;;;4998354;28;20041;-84
2022/04/08 10:39:42;;;;;;;2.75;0.65;;;8.70;99.90;;;;;;4999414;28;20057;-79
2022/04/08 10:42:21;;;;;;;4.22;0.65;;;8.40;99.90;;;;;;5000146;28;20037;-79
2022/04/08 10:44:46;;;;;;;2.63;0.75;;;8.10;99.90;;;;;;4987526;28;20037;-79
2022/04/08 10:47:17;;;;;;;5.47;1.07;;;7.80;99.90;;;;;;4930094;28;20369;-77
2022/04/08 10:49:50;;;;;;;1.65;0.52;;;7.60;99.90;;;;;;4909199;28;20095;-78
2022/04/08 10:52:24;;;;;;;4.53;0.80;;;7.40;99.90;;;;;;4974760;28;20033;-79
2022/04/08 10:54:51;;;;;;;3.88;0.70;;;7.30;99.90;;;;;;5000967;28;20053;-79
2022/04/08 10:57:39;;;;;;;4.60;1.00;;;7.20;99.90;;;;;;5001012;28;20037;-80
2022/04/08 11:00:08;;;;;;;5.53;0.70;;;7.20;99.90;;;;;;5011656;28;20037;-80
2022/04/08 11:02:39;;;;;;;5.35;1.77;;;7.20;99.90;;;;;;4999309;28;20493;-80
2022/04/08 11:05:10;;;;;;;9.75;2.70;;;7.30;99.90;;;;;;4992849;28;20134;-79
2022/04/08 11:07:44;;;;;;;8.00;2.95;;;7.50;99.90;;;;;;4981686;28;20068;-80
2022/04/08 11:10:14;;;;;;;4.25;1.38;;;7.70;99.90;;;;;;4995951;28;20104;-79
2022/04/08 11:12:48;;;;;;;4.45;1.30;;;7.90;99.90;;;;;;4998874;28;20037;-78
2022/04/08 11:15:15;;;;;;;5.03;1.75;;;8.00;99.90;;;;;;4999979;28;20747;-79
2022/04/08 11:17:41;;;;;;;7.10;1.42;;;8.20;99.90;;;;;;4986705;28;20044;-80
2022/04/08 11:20:12;;;;;;;5.10;1.48;;;8.40;99.90;;;;;;4985814;28;20098;-80
2022/04/08 11:22:43;;;;;;;6.88;1.20;;;8.70;99.90;;;;;;4976036;28;20044;-78
2022/04/08 11:25:10;;;;;;;5.03;0.80;;;9.00;99.90;;;;;;4999846;28;20065;-79
2022/04/08 11:27:36;;;;;;;6.75;1.20;;;9.20;99.90;;;;;;5000253;28;20076;-80
2022/04/08 11:30:07;;;;;;;4.25;1.02;;;9.40;99.80;;;;;;5000171;28;20064;-80
2022/04/08 11:32:33;;;;;;;7.78;1.17;;;9.50;97.60;;;;;;4978048;28;20034;-80
2022/04/08 11:35:09;;;;;;;2.40;0.70;;;9.60;98.70;;;;;;4988142;28;20043;-80
2022/04/08 11:37:34;;;;;;;5.55;0.80;;;9.60;96.40;;;;;;4984510;28;20052;-80
2022/04/08 11:40:00;;;;;;;2.30;0.70;;;9.60;94.50;;;;;;4985435;28;20045;-80
2022/04/08 11:42:27;;;;;;;6.05;0.85;;;9.50;92.10;;;;;;4990534;28;20044;-81
2022/04/08 11:44:53;;;;;;;4.20;0.70;;;9.50;89.50;;;;;;5001649;28;20116;-80
2022/04/08 11:47:29;;;;;;;4.22;0.73;;;9.50;90.90;;;;;;5003222;28;20129;-80
2022/04/08 11:50:09;;;;;;;5.37;0.90;;;9.40;83.20;;;;;;5007706;28;20535;-79
2022/04/08 11:52:38;;;;;;;4.90;0.80;;;9.40;87.30;;;;;;4999554;28;20037;-80
2022/04/08 11:55:09;;;;;;;5.57;0.85;;;9.30;90.60;;;;;;4982123;28;20061;-78
2022/04/08 11:57:37;;;;;;;2.95;0.93;;;9.30;91.60;;;;;;4995089;28;20037;-79
2022/04/08 12:00:08;;;;;;;2.60;0.80;;;9.40;94.60;;;;;;4979004;28;20041;-80
2022/04/08 12:02:36;;;;;;;3.92;1.13;;;9.60;92.40;;;;;;5000328;28;20422;-79
2022/04/08 12:05:05;;;;;;;9.55;1.15;;;9.70;92.30;;;;;;4980391;28;20041;-79
2022/04/08 12:07:31;;;;;;;7.47;0.95;;;9.90;85.80;;;;;;4980675;28;20454;-79
2022/04/08 12:10:00;;;;;;;5.40;0.50;;;9.90;85.30;;;;;;4998500;28;20050;-80
2022/04/08 12:12:28;;;;;;;6.70;0.82;;;9.90;80.40;;;;;;4998462;28;20029;-80
2022/04/08 12:14:54;;;;;;;2.97;0.63;;;10.00;81.60;;;;;;4999044;28;20492;-79
2022/04/08 12:17:21;;;;;;;6.10;1.15;;;10.10;80.20;;;;;;4981252;28;20140;-80
2022/04/08 12:19:51;;;;;;;2.65;0.65;;;10.40;79.40;;;;;;4997964;28;20152;-79
2022/04/08 12:22:18;;;;;;;7.03;0.98;;;10.40;77.00;;;;;;4973583;28;20563;-78
2022/04/08 12:24:44;;;;;;;3.85;0.85;;;10.40;75.70;;;;;;4985228;28;20136;-79
2022/04/08 12:27:17;;;;;;;;;;;10.40;74.10;;;;;;4985049;28;20052;-79
2022/04/08 12:29:46;;;;;;;3.72;0.90;;;10.30;72.10;;;;;;4985703;28;19925;-80
2022/04/08 12:32:13;;;;;;;8.38;0.73;;;10.30;74.30;;;;;;4981987;28;20119;-79
2022/04/08 12:34:39;;;;;;;6.43;1.58;;;10.30;74.30;;;;;;4986412;28;20443;-79
2022/04/08 12:37:05;;;;;;;6.72;1.20;;;10.20;76.10;;;;;;5002000;28;20037;-80
2022/04/08 12:39:30;;;;;;;4.70;0.90;;;10.20;78.00;;;;;;5003097;28;20053;-80
2022/04/08 12:42:00;;;;;;;3.47;0.80;;;10.20;82.20;;;;;;4995863;28;20175;-78
2022/04/08 12:44:25;;;;;;;8.48;1.15;;;10.00;80.10;;;;;;4987791;28;20605;-78
2022/04/08 12:46:52;;;;;;;8.80;0.77;;;9.80;80.70;;;;;;5001227;28;20037;-79
2022/04/08 12:49:18;;;;;;;5.07;0.77;;;9.70;76.10;;;;;;4993418;28;20454;-78
2022/04/08 12:51:43;;;;;;;7.45;0.98;;;9.70;71.20;;;;;;5015777;28;20446;-79
2022/04/08 12:54:11;;;;;;;5.20;1.00;;;9.80;72.20;;;;;;4991743;28;20053;-79
2022/04/08 12:56:37;;;;;;;4.45;0.70;;;9.90;72.20;;;;;;5000942;28;20041;-77